createdAt,value
2022-11-29T00:00:21.322Z,36.59
2022-11-29T00:00:51.364Z,36.55
2022-11-29T00:01:21.420Z,36.60
2022-11-29T00:01:51.656Z,36.59
2022-11-29T00:02:21.646Z,36.57
2022-11-29T00:02:51.635Z,36.62
2022-11-29T00:03:21.715Z,36.59
2022-11-29T00:03:51.632Z,36.58
2022-11-29T00:04:21.716Z,36.58
2022-11-29T00:04:51.834Z,36.56
2022-11-29T00:05:21.867Z,36.56
2022-11-29T00:05:51.866Z,36.59
2022-11-29T00:06:22.447Z,36.58
2022-11-29T00:06:51.978Z,36.60
2022-11-29T00:07:22.040Z,36.56
2022-11-29T00:07:52.125Z,36.52
2022-11-29T00:08:22.135Z,36.53
2022-11-29T00:08:52.150Z,36.52
2022-11-29T00:09:22.155Z,36.50
2022-11-29T00:09:52.153Z,36.48
2022-11-29T00:10:22.156Z,36.52
2022-11-29T00:10:52.183Z,36.55
2022-11-29T00:11:22.189Z,36.53
2022-11-29T00:11:52.225Z,36.56
2022-11-29T00:12:22.273Z,36.60
2022-11-29T00:12:52.341Z,36.60
2022-11-29T00:13:22.413Z,36.59
2022-11-29T00:13:52.462Z,36.62
2022-11-29T00:14:22.514Z,36.56
2022-11-29T00:14:52.557Z,36.60
2022-11-29T00:15:22.604Z,36.59
2022-11-29T00:15:52.693Z,36.59
2022-11-29T00:16:22.822Z,36.55
2022-11-29T00:16:52.862Z,36.54
2022-11-29T00:17:22.851Z,36.60
2022-11-29T00:17:52.912Z,36.52
2022-11-29T00:18:22.964Z,36.58
2022-11-29T00:18:53.010Z,36.48
2022-11-29T00:19:23.088Z,36.51
2022-11-29T00:19:53.120Z,36.50
2022-11-29T00:20:23.199Z,36.46
2022-11-29T00:20:53.245Z,36.43
2022-11-29T00:21:23.301Z,36.36
2022-11-29T00:21:53.335Z,36.42
2022-11-29T00:22:23.387Z,36.36
2022-11-29T00:22:53.439Z,36.41
2022-11-29T00:23:23.491Z,36.38
2022-11-29T00:23:53.536Z,36.36
2022-11-29T00:24:23.585Z,36.44
2022-11-29T00:24:53.622Z,36.36
2022-11-29T00:25:23.674Z,36.36
2022-11-29T00:25:53.765Z,36.36
2022-11-29T00:26:23.813Z,36.36
2022-11-29T00:26:53.860Z,36.30
2022-11-29T00:27:23.913Z,36.31
2022-11-29T00:27:53.956Z,36.34
2022-11-29T00:28:24.013Z,36.31
2022-11-29T00:28:54.066Z,36.26
2022-11-29T00:29:24.118Z,36.35
2022-11-29T00:29:54.161Z,36.36
2022-11-29T00:30:24.291Z,36.35
2022-11-29T00:30:54.254Z,36.36
2022-11-29T00:31:24.297Z,36.39
2022-11-29T00:31:54.343Z,36.43
2022-11-29T00:32:24.394Z,36.46
2022-11-29T00:32:54.447Z,36.42
2022-11-29T00:33:24.493Z,36.42
2022-11-29T00:33:54.535Z,36.44
2022-11-29T00:34:24.603Z,36.39
2022-11-29T00:34:58.251Z,36.38
2022-11-29T00:35:24.744Z,36.36
2022-11-29T00:35:54.817Z,36.38
2022-11-29T00:36:24.846Z,36.33
2022-11-29T00:36:54.898Z,36.39
2022-11-29T00:37:24.946Z,36.33
2022-11-29T00:37:54.997Z,36.38
2022-11-29T00:38:25.034Z,36.41
2022-11-29T00:38:55.085Z,36.35
2022-11-29T00:39:25.135Z,36.39
2022-11-29T00:39:55.188Z,36.42
2022-11-29T00:40:25.238Z,36.40
2022-11-29T00:40:55.313Z,36.38
2022-11-29T00:41:25.355Z,36.36
2022-11-29T00:41:55.411Z,36.33
2022-11-29T00:42:25.482Z,36.31
2022-11-29T00:42:55.555Z,36.36
2022-11-29T00:43:25.653Z,36.42
2022-11-29T00:43:55.615Z,36.43
2022-11-29T00:44:25.672Z,36.47
2022-11-29T00:44:55.724Z,36.47
2022-11-29T00:45:25.769Z,36.52
2022-11-29T00:45:55.853Z,36.56
2022-11-29T00:46:25.924Z,36.60
2022-11-29T00:46:55.857Z,36.59
2022-11-29T00:47:25.917Z,36.59
2022-11-29T00:47:55.954Z,36.60
2022-11-29T00:48:26.022Z,36.61
2022-11-29T00:48:56.084Z,36.60
2022-11-29T00:49:26.133Z,36.67
2022-11-29T00:49:56.176Z,36.67
2022-11-29T00:50:26.227Z,36.65
2022-11-29T00:50:56.272Z,36.67
2022-11-29T00:51:26.357Z,36.67
2022-11-29T00:51:56.390Z,36.63
2022-11-29T00:52:26.439Z,36.65
2022-11-29T00:52:56.479Z,36.61
2022-11-29T00:53:26.545Z,36.65
2022-11-29T00:53:56.589Z,36.63
2022-11-29T00:54:26.643Z,36.63
2022-11-29T00:54:56.686Z,36.57
2022-11-29T00:55:26.737Z,36.66
2022-11-29T00:55:56.795Z,36.57
2022-11-29T00:56:26.864Z,36.59
2022-11-29T00:56:56.901Z,36.56
2022-11-29T00:57:26.943Z,36.53
2022-11-29T00:57:56.996Z,36.51
2022-11-29T00:58:27.058Z,36.52
2022-11-29T00:58:57.109Z,36.51
2022-11-29T00:59:27.151Z,36.48
2022-11-29T00:59:57.197Z,36.45
2022-11-29T01:00:27.251Z,36.47
2022-11-29T01:00:57.388Z,36.43
2022-11-29T01:01:27.490Z,36.47
2022-11-29T01:01:57.553Z,36.48
2022-11-29T01:02:27.568Z,36.46
2022-11-29T01:02:57.572Z,36.48
2022-11-29T01:03:27.585Z,36.40
2022-11-29T01:03:57.586Z,36.43
2022-11-29T01:04:27.594Z,36.44
2022-11-29T01:04:57.596Z,36.40
2022-11-29T01:05:27.604Z,36.44
2022-11-29T01:05:57.633Z,36.51
2022-11-29T01:06:27.639Z,36.43
2022-11-29T01:06:57.681Z,36.45
2022-11-29T01:07:27.734Z,36.44
2022-11-29T01:07:57.794Z,36.47
2022-11-29T01:08:27.814Z,36.45
2022-11-29T01:08:57.821Z,36.48
2022-11-29T01:09:27.830Z,36.47
2022-11-29T01:09:57.902Z,36.48
2022-11-29T01:10:27.924Z,36.49
2022-11-29T01:10:58.019Z,36.42
2022-11-29T01:11:28.006Z,36.45
2022-11-29T01:11:58.050Z,36.42
2022-11-29T01:12:28.119Z,36.44
2022-11-29T01:12:58.268Z,36.40
2022-11-29T01:13:28.190Z,36.40
2022-11-29T01:13:58.235Z,36.43
2022-11-29T01:14:28.279Z,36.43
2022-11-29T01:14:58.328Z,36.41
2022-11-29T01:15:28.382Z,36.46
2022-11-29T01:15:58.441Z,36.40
2022-11-29T01:16:28.595Z,36.44
2022-11-29T01:16:58.620Z,36.41
2022-11-29T01:17:28.669Z,36.40
2022-11-29T01:17:58.725Z,36.48
2022-11-29T01:18:28.778Z,36.44
2022-11-29T01:18:58.832Z,36.47
2022-11-29T01:19:28.894Z,36.44
2022-11-29T01:19:58.937Z,36.44
2022-11-29T01:20:28.988Z,36.42
2022-11-29T01:20:59.061Z,36.43
2022-11-29T01:21:29.143Z,36.39
2022-11-29T01:21:59.195Z,36.43
2022-11-29T01:22:29.287Z,36.46
2022-11-29T01:22:59.338Z,36.39
2022-11-29T01:23:29.402Z,36.44
2022-11-29T01:23:59.467Z,36.38
2022-11-29T01:24:29.520Z,36.39
2022-11-29T01:24:59.577Z,36.42
2022-11-29T01:25:29.634Z,36.40
2022-11-29T01:25:59.672Z,36.43
2022-11-29T01:26:29.746Z,36.52
2022-11-29T01:26:59.791Z,36.49
2022-11-29T01:27:29.852Z,36.57
2022-11-29T01:27:59.939Z,36.54
2022-11-29T01:28:30.014Z,36.57
2022-11-29T01:29:00.085Z,36.57
2022-11-29T01:29:30.129Z,36.53
2022-11-29T01:30:00.179Z,36.54
2022-11-29T01:30:30.393Z,36.61
2022-11-29T01:31:00.515Z,36.60
2022-11-29T01:31:30.411Z,36.58
2022-11-29T01:32:00.425Z,36.64
2022-11-29T01:32:30.522Z,36.64
2022-11-29T01:33:00.543Z,36.62
2022-11-29T01:33:30.609Z,36.62
2022-11-29T01:34:00.677Z,36.66
2022-11-29T01:34:30.753Z,36.65
2022-11-29T01:35:00.839Z,36.62
2022-11-29T01:35:30.935Z,36.57
2022-11-29T01:36:01.012Z,36.59
2022-11-29T01:36:31.079Z,36.61
2022-11-29T01:37:01.129Z,36.61
2022-11-29T01:37:31.178Z,36.62
2022-11-29T01:38:01.248Z,36.58
2022-11-29T01:38:31.278Z,36.57
2022-11-29T01:39:01.329Z,36.58
2022-11-29T01:39:31.373Z,36.60
2022-11-29T01:40:01.422Z,36.54
2022-11-29T01:40:31.477Z,36.54
2022-11-29T01:41:01.555Z,36.58
2022-11-29T01:41:31.601Z,36.52
2022-11-29T01:42:01.646Z,36.53
2022-11-29T01:42:31.694Z,36.52
2022-11-29T01:43:01.745Z,36.48
2022-11-29T01:43:31.810Z,36.45
2022-11-29T01:44:01.846Z,36.45
2022-11-29T01:44:31.891Z,36.48
2022-11-29T01:45:01.944Z,36.49
2022-11-29T01:45:32.057Z,36.45
2022-11-29T01:46:02.036Z,36.46
2022-11-29T01:46:32.064Z,36.48
2022-11-29T01:47:02.119Z,36.56
2022-11-29T01:47:32.169Z,36.54
2022-11-29T01:48:02.223Z,36.54
2022-11-29T01:48:32.273Z,36.54
2022-11-29T01:49:02.316Z,36.54
2022-11-29T01:49:32.365Z,36.61
2022-11-29T01:50:02.408Z,36.62
2022-11-29T01:50:32.468Z,36.62
2022-11-29T01:51:02.536Z,36.64
2022-11-29T01:51:32.583Z,36.61
2022-11-29T01:52:02.634Z,36.61
2022-11-29T01:52:32.690Z,36.55
2022-11-29T01:53:02.767Z,36.64
2022-11-29T01:53:32.814Z,36.60
2022-11-29T01:54:02.859Z,36.58
2022-11-29T01:54:32.969Z,36.61
2022-11-29T01:55:03.028Z,36.63
2022-11-29T01:55:33.183Z,36.61
2022-11-29T01:56:03.237Z,36.63
2022-11-29T01:56:33.213Z,36.60
2022-11-29T01:57:03.268Z,36.64
2022-11-29T01:57:33.331Z,36.66
2022-11-29T01:58:03.389Z,36.62
2022-11-29T01:58:33.428Z,36.65
2022-11-29T01:59:03.471Z,36.60
2022-11-29T01:59:33.523Z,36.58
2022-11-29T02:00:03.591Z,36.60
2022-11-29T02:00:33.646Z,36.62
2022-11-29T02:01:03.779Z,36.69
2022-11-29T02:01:33.748Z,36.62
2022-11-29T02:02:03.952Z,36.69
2022-11-29T02:02:33.890Z,36.69
2022-11-29T02:03:03.890Z,36.71
2022-11-29T02:03:33.886Z,36.68
2022-11-29T02:04:03.897Z,36.73
2022-11-29T02:04:33.898Z,36.65
2022-11-29T02:05:03.902Z,36.65
2022-11-29T02:05:33.923Z,36.71
2022-11-29T02:06:03.928Z,36.63
2022-11-29T02:06:33.957Z,36.66
2022-11-29T02:07:03.949Z,36.69
2022-11-29T02:07:33.997Z,36.69
2022-11-29T02:08:04.005Z,36.74
2022-11-29T02:08:34.036Z,36.69
2022-11-29T02:09:04.004Z,36.74
2022-11-29T02:09:34.010Z,36.69
2022-11-29T02:10:04.031Z,36.69
2022-11-29T02:10:34.039Z,36.70
2022-11-29T02:11:04.050Z,36.70
2022-11-29T02:11:34.490Z,36.67
2022-11-29T02:12:04.083Z,36.73
2022-11-29T02:12:34.130Z,36.71
2022-11-29T02:13:04.182Z,36.75
2022-11-29T02:13:34.243Z,36.71
2022-11-29T02:14:04.287Z,36.70
2022-11-29T02:14:34.339Z,36.69
2022-11-29T02:15:04.392Z,36.66
2022-11-29T02:15:34.583Z,36.63
2022-11-29T02:16:04.607Z,36.66
2022-11-29T02:16:34.547Z,36.66
2022-11-29T02:17:04.592Z,36.68
2022-11-29T02:17:34.644Z,36.66
2022-11-29T02:18:04.703Z,36.70
2022-11-29T02:18:34.759Z,36.67
2022-11-29T02:19:04.806Z,36.61
2022-11-29T02:19:34.846Z,36.58
2022-11-29T02:20:04.938Z,36.60
2022-11-29T02:20:34.976Z,36.53
2022-11-29T02:21:05.035Z,36.58
2022-11-29T02:21:35.085Z,36.56
2022-11-29T02:22:05.141Z,36.56
2022-11-29T02:22:35.198Z,36.53
2022-11-29T02:23:05.259Z,36.51
2022-11-29T02:23:35.306Z,36.47
2022-11-29T02:24:05.388Z,36.48
2022-11-29T02:24:35.396Z,36.41
2022-11-29T02:25:05.452Z,36.37
2022-11-29T02:25:35.505Z,36.35
2022-11-29T02:26:05.559Z,36.40
2022-11-29T02:26:35.604Z,36.35
2022-11-29T02:27:05.657Z,36.33
2022-11-29T02:27:35.712Z,36.33
2022-11-29T02:28:05.765Z,36.29
2022-11-29T02:28:35.809Z,36.30
2022-11-29T02:29:05.849Z,36.30
2022-11-29T02:29:35.906Z,36.26
2022-11-29T02:30:05.962Z,36.27
2022-11-29T02:30:36.064Z,36.29
2022-11-29T02:31:06.141Z,36.30
2022-11-29T02:31:36.171Z,36.31
2022-11-29T02:32:06.243Z,36.28
2022-11-29T02:32:36.296Z,36.28
2022-11-29T02:33:06.355Z,36.20
2022-11-29T02:33:36.389Z,36.27
2022-11-29T02:34:06.434Z,36.29
2022-11-29T02:34:36.493Z,36.23
2022-11-29T02:35:06.535Z,36.20
2022-11-29T02:35:36.582Z,36.23
2022-11-29T02:36:06.623Z,36.21
2022-11-29T02:36:36.680Z,36.20
2022-11-29T02:37:11.388Z,36.20
2022-11-29T02:37:36.746Z,36.23
2022-11-29T02:38:06.796Z,36.17
2022-11-29T02:38:36.834Z,36.08
2022-11-29T02:39:06.886Z,36.14
2022-11-29T02:39:36.968Z,36.22
2022-11-29T02:40:06.990Z,36.19
2022-11-29T02:40:37.038Z,36.17
2022-11-29T02:41:07.090Z,36.23
2022-11-29T02:41:37.150Z,36.24
2022-11-29T02:42:07.207Z,36.20
2022-11-29T02:42:37.254Z,36.27
2022-11-29T02:43:07.301Z,36.24
2022-11-29T02:43:37.343Z,36.28
2022-11-29T02:44:07.390Z,36.25
2022-11-29T02:44:37.453Z,36.33
2022-11-29T02:45:07.509Z,36.33
2022-11-29T02:45:37.560Z,36.35
2022-11-29T02:46:07.686Z,36.37
2022-11-29T02:46:37.707Z,36.40
2022-11-29T02:47:07.767Z,36.40
2022-11-29T02:47:37.818Z,36.38
2022-11-29T02:48:07.869Z,36.41
2022-11-29T02:48:37.913Z,36.48
2022-11-29T02:49:07.971Z,36.45
2022-11-29T02:49:38.025Z,36.45
2022-11-29T02:50:08.076Z,36.47
2022-11-29T02:50:38.163Z,36.49
2022-11-29T02:51:08.220Z,36.52
2022-11-29T02:51:38.284Z,36.46
2022-11-29T02:52:08.351Z,36.48
2022-11-29T02:52:38.412Z,36.48
2022-11-29T02:53:08.457Z,36.50
2022-11-29T02:53:38.512Z,36.48
2022-11-29T02:54:08.563Z,36.52
2022-11-29T02:54:38.620Z,36.54
2022-11-29T02:55:08.696Z,36.52
2022-11-29T02:55:38.715Z,36.58
2022-11-29T02:56:08.770Z,36.58
2022-11-29T02:56:38.817Z,36.57
2022-11-29T02:57:08.882Z,36.63
2022-11-29T02:57:38.924Z,36.60
2022-11-29T02:58:08.976Z,36.55
2022-11-29T02:58:39.027Z,36.58
2022-11-29T02:59:09.080Z,36.58
2022-11-29T02:59:39.127Z,36.58
2022-11-29T03:00:09.201Z,36.59
2022-11-29T03:00:39.250Z,36.58
2022-11-29T03:01:09.350Z,36.63
2022-11-29T03:01:39.447Z,36.66
2022-11-29T03:02:09.534Z,36.65
2022-11-29T03:02:39.611Z,36.69
2022-11-29T03:03:09.598Z,36.70
2022-11-29T03:03:39.605Z,36.71
2022-11-29T03:04:09.621Z,36.66
2022-11-29T03:04:39.616Z,36.65
2022-11-29T03:05:09.616Z,36.67
2022-11-29T03:05:39.632Z,36.67
2022-11-29T03:06:09.647Z,36.69
2022-11-29T03:06:39.652Z,36.72
2022-11-29T03:07:09.675Z,36.73
2022-11-29T03:07:39.749Z,36.71
2022-11-29T03:08:09.753Z,36.71
2022-11-29T03:08:39.758Z,36.73
2022-11-29T03:09:09.837Z,36.69
2022-11-29T03:09:39.907Z,36.67
2022-11-29T03:10:09.905Z,36.69
2022-11-29T03:10:40.013Z,36.66
2022-11-29T03:11:09.921Z,36.67
2022-11-29T03:11:39.957Z,36.65
2022-11-29T03:12:10.003Z,36.60
2022-11-29T03:12:40.057Z,36.62
2022-11-29T03:13:10.115Z,36.53
2022-11-29T03:13:40.165Z,36.56
2022-11-29T03:14:10.219Z,36.54
2022-11-29T03:14:40.273Z,36.52
2022-11-29T03:15:10.338Z,36.53
2022-11-29T03:15:40.483Z,36.48
2022-11-29T03:16:10.463Z,36.53
2022-11-29T03:16:43.251Z,36.49
2022-11-29T03:17:10.634Z,36.52
2022-11-29T03:17:40.721Z,36.45
2022-11-29T03:18:10.798Z,36.42
2022-11-29T03:18:40.853Z,36.38
2022-11-29T03:19:10.922Z,36.38
2022-11-29T03:19:40.996Z,36.38
2022-11-29T03:20:11.081Z,36.38
2022-11-29T03:20:41.148Z,36.35
2022-11-29T03:21:11.181Z,36.36
2022-11-29T03:21:41.228Z,36.36
2022-11-29T03:22:11.338Z,36.29
2022-11-29T03:22:41.388Z,36.25
2022-11-29T03:23:11.445Z,36.20
2022-11-29T03:23:41.492Z,36.19
2022-11-29T03:24:11.526Z,36.20
2022-11-29T03:24:41.747Z,36.21
2022-11-29T03:25:11.654Z,36.20
2022-11-29T03:25:41.725Z,36.20
2022-11-29T03:26:11.746Z,36.26
2022-11-29T03:26:41.804Z,36.23
2022-11-29T03:27:11.874Z,36.19
2022-11-29T03:27:41.931Z,36.16
2022-11-29T03:28:11.982Z,36.16
2022-11-29T03:28:42.024Z,36.16
2022-11-29T03:29:12.070Z,36.16
2022-11-29T03:29:42.124Z,36.26
2022-11-29T03:30:12.172Z,36.20
2022-11-29T03:30:42.269Z,36.20
2022-11-29T03:31:12.362Z,36.22
2022-11-29T03:31:42.403Z,36.21
2022-11-29T03:32:12.473Z,36.18
2022-11-29T03:32:42.515Z,36.17
2022-11-29T03:33:12.562Z,36.17
2022-11-29T03:33:42.610Z,36.16
2022-11-29T03:34:12.656Z,36.16
2022-11-29T03:34:43.075Z,36.15
2022-11-29T03:35:12.811Z,36.13
2022-11-29T03:35:42.864Z,36.12
2022-11-29T03:36:12.926Z,36.15
2022-11-29T03:36:42.969Z,36.17
2022-11-29T03:37:13.030Z,36.13
2022-11-29T03:37:43.074Z,36.22
2022-11-29T03:38:13.140Z,36.18
2022-11-29T03:38:43.196Z,36.18
2022-11-29T03:39:13.263Z,36.20
2022-11-29T03:39:43.371Z,36.28
2022-11-29T03:40:13.446Z,36.32
2022-11-29T03:40:43.489Z,36.31
2022-11-29T03:41:13.577Z,36.36
2022-11-29T03:41:43.595Z,36.33
2022-11-29T03:42:13.661Z,36.37
2022-11-29T03:42:43.720Z,36.38
2022-11-29T03:43:13.775Z,36.36
2022-11-29T03:43:43.832Z,36.46
2022-11-29T03:44:13.883Z,36.50
2022-11-29T03:44:44.275Z,36.47
2022-11-29T03:45:14.023Z,36.55
2022-11-29T03:45:44.080Z,36.57
2022-11-29T03:46:14.177Z,36.54
2022-11-29T03:46:44.245Z,36.52
2022-11-29T03:47:14.297Z,36.57
2022-11-29T03:47:44.349Z,36.59
2022-11-29T03:48:14.393Z,36.56
2022-11-29T03:48:44.444Z,36.66
2022-11-29T03:49:14.506Z,36.66
2022-11-29T03:49:44.563Z,36.64
2022-11-29T03:50:14.610Z,36.63
2022-11-29T03:50:44.656Z,36.62
2022-11-29T03:51:14.703Z,36.60
2022-11-29T03:51:44.758Z,36.59
2022-11-29T03:52:14.808Z,36.59
2022-11-29T03:52:44.863Z,36.60
2022-11-29T03:53:14.906Z,36.58
2022-11-29T03:53:44.988Z,36.60
2022-11-29T03:54:14.976Z,36.67
2022-11-29T03:54:45.394Z,36.60
2022-11-29T03:55:15.134Z,36.64
2022-11-29T03:55:45.196Z,36.63
2022-11-29T03:56:15.247Z,36.66
2022-11-29T03:56:45.369Z,36.65
2022-11-29T03:57:15.422Z,36.64
2022-11-29T03:57:45.510Z,36.67
2022-11-29T03:58:15.569Z,36.64
2022-11-29T03:58:45.618Z,36.66
2022-11-29T03:59:15.671Z,36.65
2022-11-29T03:59:45.783Z,36.66
2022-11-29T04:00:15.736Z,36.62
2022-11-29T04:00:45.784Z,36.59
2022-11-29T04:01:15.927Z,36.61
2022-11-29T04:01:45.985Z,36.62
2022-11-29T04:02:15.961Z,36.65
2022-11-29T04:02:45.998Z,36.64
2022-11-29T04:03:16.040Z,36.66
2022-11-29T04:03:46.081Z,36.71
2022-11-29T04:04:16.196Z,36.81
2022-11-29T04:04:46.541Z,36.71
2022-11-29T04:05:16.272Z,36.72
2022-11-29T04:05:46.305Z,36.74
2022-11-29T04:06:16.305Z,36.70
2022-11-29T04:06:46.317Z,36.69
2022-11-29T04:07:16.413Z,36.67
2022-11-29T04:07:46.375Z,36.65
2022-11-29T04:08:16.404Z,36.63
2022-11-29T04:08:46.427Z,36.63
2022-11-29T04:09:16.451Z,36.71
2022-11-29T04:09:46.456Z,36.70
2022-11-29T04:10:16.506Z,36.65
2022-11-29T04:10:46.554Z,36.71
2022-11-29T04:11:16.525Z,36.69
2022-11-29T04:11:46.568Z,36.62
2022-11-29T04:12:16.638Z,36.62
2022-11-29T04:12:46.668Z,36.56
2022-11-29T04:13:16.719Z,36.63
2022-11-29T04:13:46.779Z,36.61
2022-11-29T04:14:16.828Z,36.63
2022-11-29T04:14:47.125Z,36.62
2022-11-29T04:15:16.866Z,36.63
2022-11-29T04:15:46.945Z,36.62
2022-11-29T04:16:17.074Z,36.62
2022-11-29T04:16:47.009Z,36.54
2022-11-29T04:17:17.061Z,36.60
2022-11-29T04:17:47.107Z,36.57
2022-11-29T04:18:17.158Z,36.57
2022-11-29T04:18:47.219Z,36.52
2022-11-29T04:19:17.261Z,36.59
2022-11-29T04:19:47.318Z,36.54
2022-11-29T04:20:17.375Z,36.54
2022-11-29T04:20:48.529Z,36.51
2022-11-29T04:21:17.518Z,36.52
2022-11-29T04:21:47.570Z,36.50
2022-11-29T04:22:17.612Z,36.50
2022-11-29T04:22:47.672Z,36.49
2022-11-29T04:23:17.729Z,36.52
2022-11-29T04:23:47.770Z,36.52
2022-11-29T04:24:17.814Z,36.52
2022-11-29T04:24:47.869Z,36.56
2022-11-29T04:25:17.926Z,36.56
2022-11-29T04:25:47.975Z,36.58
2022-11-29T04:26:18.035Z,36.57
2022-11-29T04:26:48.086Z,36.51
2022-11-29T04:27:18.135Z,36.54
2022-11-29T04:27:48.223Z,36.55
2022-11-29T04:28:18.273Z,36.54
2022-11-29T04:28:48.311Z,36.54
2022-11-29T04:29:18.351Z,36.55
2022-11-29T04:29:48.410Z,36.54
2022-11-29T04:30:18.453Z,36.55
2022-11-29T04:30:48.566Z,36.53
2022-11-29T04:31:18.735Z,36.47
2022-11-29T04:31:48.716Z,36.57
2022-11-29T04:32:18.667Z,36.54
2022-11-29T04:32:48.718Z,36.57
2022-11-29T04:33:18.806Z,36.55
2022-11-29T04:33:48.866Z,36.50
2022-11-29T04:34:18.905Z,36.49
2022-11-29T04:34:48.966Z,36.56
2022-11-29T04:35:19.037Z,36.58
2022-11-29T04:35:49.077Z,36.59
2022-11-29T04:36:19.123Z,36.57
2022-11-29T04:36:49.173Z,36.54
2022-11-29T04:37:19.218Z,36.54
2022-11-29T04:37:49.270Z,36.55
2022-11-29T04:38:19.327Z,36.52
2022-11-29T04:38:49.388Z,36.54
2022-11-29T04:39:19.420Z,36.50
2022-11-29T04:39:49.502Z,36.53
2022-11-29T04:40:19.549Z,36.58
2022-11-29T04:40:49.603Z,36.63
2022-11-29T04:41:19.708Z,36.68
2022-11-29T04:41:49.696Z,36.66
2022-11-29T04:42:19.754Z,36.70
2022-11-29T04:42:49.823Z,36.77
2022-11-29T04:43:19.979Z,36.79
2022-11-29T04:43:49.917Z,36.81
2022-11-29T04:44:19.962Z,36.83
2022-11-29T04:44:50.021Z,36.79
2022-11-29T04:45:20.066Z,36.75
2022-11-29T04:45:50.111Z,36.71
2022-11-29T04:46:20.240Z,36.73
2022-11-29T04:46:50.268Z,36.72
2022-11-29T04:47:20.316Z,36.70
2022-11-29T04:47:50.420Z,36.80
2022-11-29T04:48:20.477Z,36.77
2022-11-29T04:48:50.524Z,36.79
2022-11-29T04:49:20.577Z,36.81
2022-11-29T04:49:50.631Z,36.76
2022-11-29T04:50:20.688Z,36.80
2022-11-29T04:50:50.726Z,36.76
2022-11-29T04:51:20.766Z,36.74
2022-11-29T04:51:50.813Z,36.76
2022-11-29T04:52:20.876Z,36.80
2022-11-29T04:52:50.929Z,36.80
2022-11-29T04:53:21.014Z,36.85
2022-11-29T04:53:51.097Z,36.84
2022-11-29T04:54:21.164Z,36.76
2022-11-29T04:54:51.216Z,36.79
2022-11-29T04:55:27.842Z,36.78
2022-11-29T04:55:51.293Z,36.80
2022-11-29T04:56:21.342Z,36.81
2022-11-29T04:56:51.392Z,36.80
2022-11-29T04:57:21.446Z,36.80
2022-11-29T04:57:51.505Z,36.77
2022-11-29T04:58:21.552Z,36.76
2022-11-29T04:58:51.628Z,36.77
2022-11-29T04:59:21.653Z,36.74
2022-11-29T04:59:51.697Z,36.73
2022-11-29T05:00:21.751Z,36.76
2022-11-29T05:00:51.808Z,36.74
2022-11-29T05:01:21.901Z,36.74
2022-11-29T05:01:51.893Z,36.72
2022-11-29T05:02:21.959Z,36.57
2022-11-29T05:02:52.035Z,36.66
2022-11-29T05:03:22.056Z,36.67
2022-11-29T05:03:56.850Z,36.65
2022-11-29T05:04:22.164Z,36.59
2022-11-29T05:04:52.175Z,36.58
2022-11-29T05:05:22.193Z,36.55
2022-11-29T05:05:52.199Z,36.57
2022-11-29T05:06:22.200Z,36.58
2022-11-29T05:06:52.223Z,36.55
2022-11-29T05:07:22.329Z,36.55
2022-11-29T05:07:52.285Z,36.56
2022-11-29T05:08:22.292Z,36.60
2022-11-29T05:08:52.302Z,36.65
2022-11-29T05:09:22.303Z,36.60
2022-11-29T05:09:52.311Z,36.67
2022-11-29T05:10:22.329Z,36.66
2022-11-29T05:10:52.331Z,36.71
2022-11-29T05:11:26.691Z,36.66
2022-11-29T05:11:52.396Z,36.65
2022-11-29T05:12:22.448Z,36.66
2022-11-29T05:12:52.537Z,36.64
2022-11-29T05:13:22.532Z,36.69
2022-11-29T05:13:52.555Z,36.65
2022-11-29T05:14:22.658Z,36.60
2022-11-29T05:14:52.704Z,36.65
2022-11-29T05:15:22.758Z,36.58
2022-11-29T05:15:52.886Z,36.62
2022-11-29T05:16:23.031Z,36.58
2022-11-29T05:16:52.982Z,36.60
2022-11-29T05:17:23.034Z,36.59
2022-11-29T05:17:53.076Z,36.58
2022-11-29T05:18:23.136Z,36.59
2022-11-29T05:18:53.179Z,36.77
2022-11-29T05:19:23.238Z,37.00
2022-11-29T05:19:53.291Z,36.90
2022-11-29T05:20:23.339Z,37.03
2022-11-29T05:20:53.393Z,37.07
2022-11-29T05:21:23.457Z,37.12
2022-11-29T05:21:53.550Z,37.20
2022-11-29T05:22:23.602Z,37.20
2022-11-29T05:22:53.649Z,37.21
2022-11-29T05:23:23.712Z,37.27
2022-11-29T05:23:53.763Z,37.28
2022-11-29T05:24:23.828Z,37.36
2022-11-29T05:24:53.882Z,37.42
2022-11-29T05:25:23.936Z,37.39
2022-11-29T05:25:53.985Z,37.38
2022-11-29T05:26:24.034Z,37.35
2022-11-29T05:26:54.075Z,37.37
2022-11-29T05:27:24.130Z,37.30
2022-11-29T05:27:54.193Z,37.29
2022-11-29T05:28:24.273Z,37.30
2022-11-29T05:28:54.330Z,37.28
2022-11-29T05:29:24.442Z,37.22
2022-11-29T05:29:54.503Z,37.20
2022-11-29T05:30:24.555Z,37.21
2022-11-29T05:30:54.684Z,37.13
2022-11-29T05:31:24.660Z,37.15
2022-11-29T05:31:54.704Z,37.08
2022-11-29T05:32:24.764Z,37.06
2022-11-29T05:32:54.812Z,37.03
2022-11-29T05:33:24.873Z,36.99
2022-11-29T05:33:54.919Z,36.93
2022-11-29T05:34:26.383Z,36.87
2022-11-29T05:34:55.041Z,36.83
2022-11-29T05:35:25.105Z,36.78
2022-11-29T05:35:55.152Z,36.81
2022-11-29T05:36:25.193Z,36.80
2022-11-29T05:36:55.244Z,36.77
2022-11-29T05:37:25.288Z,36.69
2022-11-29T05:37:55.350Z,36.71
2022-11-29T05:38:25.509Z,36.68
2022-11-29T05:38:55.441Z,36.72
2022-11-29T05:39:25.491Z,36.68
2022-11-29T05:39:55.540Z,36.73
2022-11-29T05:40:25.595Z,36.70
2022-11-29T05:40:55.643Z,36.64
2022-11-29T05:41:25.690Z,36.67
2022-11-29T05:41:55.750Z,36.71
2022-11-29T05:42:25.830Z,36.63
2022-11-29T05:42:55.932Z,36.65
2022-11-29T05:43:26.034Z,36.65
2022-11-29T05:43:56.095Z,36.62
2022-11-29T05:44:26.142Z,36.60
2022-11-29T05:44:56.231Z,36.56
2022-11-29T05:45:26.267Z,36.56
2022-11-29T05:45:56.311Z,36.58
2022-11-29T05:46:26.383Z,36.57
2022-11-29T05:46:56.427Z,36.57
2022-11-29T05:47:31.258Z,36.51
2022-11-29T05:47:56.501Z,36.54
2022-11-29T05:48:26.554Z,36.51
2022-11-29T05:48:56.611Z,36.51
2022-11-29T05:49:26.667Z,36.42
2022-11-29T05:49:56.729Z,36.46
2022-11-29T05:50:26.787Z,36.43
2022-11-29T05:50:56.825Z,36.46
2022-11-29T05:51:26.873Z,36.45
2022-11-29T05:51:56.938Z,36.39
2022-11-29T05:52:27.005Z,36.38
2022-11-29T05:52:57.056Z,36.43
2022-11-29T05:53:27.113Z,36.39
2022-11-29T05:53:57.165Z,36.37
2022-11-29T05:54:27.239Z,36.36
2022-11-29T05:54:57.279Z,36.31
2022-11-29T05:55:27.333Z,36.38
2022-11-29T05:55:57.377Z,36.41
2022-11-29T05:56:27.419Z,36.38
2022-11-29T05:56:57.464Z,36.38
2022-11-29T05:57:27.521Z,36.38
2022-11-29T05:57:57.579Z,36.43
2022-11-29T05:58:30.551Z,36.41
2022-11-29T05:58:57.684Z,36.45
2022-11-29T05:59:27.740Z,36.42
2022-11-29T05:59:57.792Z,36.39
2022-11-29T06:00:27.867Z,36.49
2022-11-29T06:00:57.895Z,36.50
2022-11-29T06:01:27.947Z,36.59
2022-11-29T06:01:57.984Z,36.57
2022-11-29T06:02:28.100Z,36.58
2022-11-29T06:02:58.115Z,36.58
2022-11-29T06:03:28.149Z,36.53
2022-11-29T06:03:58.163Z,36.53
2022-11-29T06:04:28.177Z,36.53
2022-11-29T06:04:58.188Z,36.51
2022-11-29T06:05:28.208Z,36.50
2022-11-29T06:05:58.192Z,36.47
2022-11-29T06:06:28.193Z,36.51
2022-11-29T06:06:58.213Z,36.40
2022-11-29T06:07:28.245Z,36.37
2022-11-29T06:07:58.284Z,36.33
2022-11-29T06:08:28.304Z,36.26
2022-11-29T06:08:58.317Z,36.22
2022-11-29T06:09:28.325Z,36.21
2022-11-29T06:10:01.645Z,36.15
2022-11-29T06:10:28.377Z,36.26
2022-11-29T06:10:58.397Z,36.28
2022-11-29T06:11:28.417Z,36.47
2022-11-29T06:11:58.477Z,36.62
2022-11-29T06:12:28.520Z,36.53
2022-11-29T06:12:58.567Z,36.56
2022-11-29T06:13:28.619Z,36.50
2022-11-29T06:13:58.669Z,36.45
2022-11-29T06:14:28.717Z,36.47
2022-11-29T06:14:58.763Z,36.49
2022-11-29T06:15:28.823Z,36.52
2022-11-29T06:15:59.066Z,36.54
2022-11-29T06:16:29.043Z,36.48
2022-11-29T06:16:58.973Z,36.70
2022-11-29T06:17:31.001Z,36.65
2022-11-29T06:17:59.050Z,36.89
2022-11-29T06:18:29.110Z,36.84
2022-11-29T06:18:59.159Z,37.15
2022-11-29T06:19:29.211Z,37.11
2022-11-29T06:19:59.260Z,37.18
2022-11-29T06:20:29.318Z,37.31
2022-11-29T06:20:59.363Z,37.33
2022-11-29T06:21:29.410Z,37.40
2022-11-29T06:21:59.458Z,37.11
2022-11-29T06:22:29.510Z,37.24
2022-11-29T06:22:59.556Z,37.31
2022-11-29T06:23:29.612Z,37.15
2022-11-29T06:23:59.656Z,37.33
2022-11-29T06:24:29.730Z,37.32
2022-11-29T06:24:59.791Z,37.19
2022-11-29T06:25:29.839Z,37.17
2022-11-29T06:26:03.845Z,37.30
2022-11-29T06:26:30.027Z,37.52
2022-11-29T06:27:00.079Z,37.44